KBYH/BYH METAR and TAF weather

Enter ICAO airport designator
Station Type Date Time Source
KBYH METAR 2018/10/19 15:55 UTC NOAA

KBYH 191555Z 32005KT 10SM FEW150 SCT250 17/07 A3026


Station Type Date Time Source
KBYH Decoded METAR 2018/10/19 15:55 UTC NOAA

Eaker Air Force Base, AR, United States (KBYH) 35-58N 089-57W
Oct 19, 2018 - 11:55 AM EDT / 2018.10.19 1555 UTC
Wind: from the NW (320 degrees) at 6 MPH (5 KT):0
Visibility: 10 mile(s):0
Sky conditions: partly cloudy
Temperature: 62 F (17 C)
Dew Point: 44 F (7 C)
Relative Humidity: 51%
Pressure (altimeter): 30.26 in. Hg (1024 hPa)
ob: KBYH 191555Z 32005KT 10SM FEW150 SCT250 17/07 A3026
cycle: 16

Station Type Date Time Source
KBYH TAF UTC NOAA

Error!


Example: see airport list